sensor_id;sensor_type;location;lat;lon;timestamp;pressure;altitude;pressure_sealevel;temperature;humidity
7584;BME280;3833;41.764;26.204;2022-09-09T00:00:19;100971.38;;;19.35;100.00
7584;BME280;3833;41.764;26.204;2022-09-09T00:02:55;101011.97;;;18.95;100.00
7584;BME280;3833;41.764;26.204;2022-09-09T00:05:31;101018.66;;;18.61;100.00
7584;BME280;3833;41.764;26.204;2022-09-09T00:08:00;101005.81;;;18.41;100.00
7584;BME280;3833;41.764;26.204;2022-09-09T00:10:32;101006.00;;;18.38;100.00
7584;BME280;3833;41.764;26.204;2022-09-09T00:13:08;101008.91;;;18.61;100.00
7584;BME280;3833;41.764;26.204;2022-09-09T00:15:54;100979.91;;;18.46;100.00
7584;BME280;3833;41.764;26.204;2022-09-09T00:18:26;101003.88;;;18.84;100.00
7584;BME280;3833;41.764;26.204;2022-09-09T00:20:59;100881.22;;;18.17;100.00
7584;BME280;3833;41.764;26.204;2022-09-09T00:23:30;100958.91;;;18.71;100.00
7584;BME280;3833;41.764;26.204;2022-09-09T00:26:04;100999.25;;;18.88;100.00
7584;BME280;3833;41.764;26.204;2022-09-09T00:28:36;100996.91;;;18.83;100.00
7584;BME280;3833;41.764;26.204;2022-09-09T00:31:12;100976.53;;;18.58;100.00
7584;BME280;3833;41.764;26.204;2022-09-09T00:33:40;100990.13;;;18.52;100.00
7584;BME280;3833;41.764;26.204;2022-09-09T00:36:12;101003.00;;;18.44;100.00
7584;BME280;3833;41.764;26.204;2022-09-09T00:38:44;100995.78;;;18.46;100.00
7584;BME280;3833;41.764;26.204;2022-09-09T00:41:17;100992.88;;;19.04;100.00
7584;BME280;3833;41.764;26.204;2022-09-09T00:43:53;100992.81;;;19.96;100.00
7584;BME280;3833;41.764;26.204;2022-09-09T00:46:38;100993.88;;;20.31;100.00
7584;BME280;3833;41.764;26.204;2022-09-09T00:49:15;100958.84;;;20.51;100.00
7584;BME280;3833;41.764;26.204;2022-09-09T00:51:54;100967.06;;;21.30;100.00
7584;BME280;3833;41.764;26.204;2022-09-09T00:54:35;101016.66;;;21.89;100.00
7584;BME280;3833;41.764;26.204;2022-09-09T00:57:13;101010.31;;;21.79;100.00
7584;BME280;3833;41.764;26.204;2022-09-09T00:59:46;101010.94;;;21.12;100.00
7584;BME280;3833;41.764;26.204;2022-09-09T01:02:24;100937.66;;;19.88;100.00
7584;BME280;3833;41.764;26.204;2022-09-09T01:04:52;101018.03;;;19.77;100.00
7584;BME280;3833;41.764;26.204;2022-09-09T01:07:20;101012.16;;;20.48;100.00
7584;BME280;3833;41.764;26.204;2022-09-09T01:09:52;101015.41;;;20.64;100.00
7584;BME280;3833;41.764;26.204;2022-09-09T01:12:30;100968.59;;;20.63;100.00
7584;BME280;3833;41.764;26.204;2022-09-09T01:15:04;101026.34;;;21.43;100.00
7584;BME280;3833;41.764;26.204;2022-09-09T01:17:44;101000.81;;;20.21;100.00
7584;BME280;3833;41.764;26.204;2022-09-09T01:20:14;101024.91;;;20.18;100.00
7584;BME280;3833;41.764;26.204;2022-09-09T01:22:55;101025.72;;;21.16;100.00
7584;BME280;3833;41.764;26.204;2022-09-09T01:26:03;101020.47;;;19.80;100.00
7584;BME280;3833;41.764;26.204;2022-09-09T01:28:34;101014.06;;;19.57;100.00
7584;BME280;3833;41.764;26.204;2022-09-09T01:31:03;101028.13;;;19.45;100.00
7584;BME280;3833;41.764;26.204;2022-09-09T01:33:30;100985.63;;;18.94;100.00
7584;BME280;3833;41.764;26.204;2022-09-09T01:36:00;101027.34;;;18.77;100.00
7584;BME280;3833;41.764;26.204;2022-09-09T01:38:29;101027.16;;;18.52;100.00
7584;BME280;3833;41.764;26.204;2022-09-09T01:40:59;101025.66;;;17.90;100.00
7584;BME280;3833;41.764;26.204;2022-09-09T01:43:27;101022.97;;;18.20;100.00
7584;BME280;3833;41.764;26.204;2022-09-09T01:45:56;101016.84;;;18.61;100.00
7584;BME280;3833;41.764;26.204;2022-09-09T01:48:25;101022.53;;;19.09;100.00
7584;BME280;3833;41.764;26.204;2022-09-09T01:50:52;101028.41;;;19.41;100.00
7584;BME280;3833;41.764;26.204;2022-09-09T01:53:20;100943.81;;;19.64;100.00
7584;BME280;3833;41.764;26.204;2022-09-09T01:55:57;101014.88;;;19.05;100.00
7584;BME280;3833;41.764;26.204;2022-09-09T01:58:34;101021.75;;;18.11;100.00
7584;BME280;3833;41.764;26.204;2022-09-09T02:01:17;101019.94;;;17.69;100.00
7584;BME280;3833;41.764;26.204;2022-09-09T02:03:52;101025.53;;;18.35;100.00
7584;BME280;3833;41.764;26.204;2022-09-09T02:06:26;101025.81;;;18.17;100.00
7584;BME280;3833;41.764;26.204;2022-09-09T02:08:56;101004.09;;;18.26;100.00
7584;BME280;3833;41.764;26.204;2022-09-09T02:11:26;101026.78;;;18.30;100.00
7584;BME280;3833;41.764;26.204;2022-09-09T02:13:59;101013.16;;;18.22;100.00
7584;BME280;3833;41.764;26.204;2022-09-09T02:16:30;101027.56;;;17.88;100.00
7584;BME280;3833;41.764;26.204;2022-09-09T02:19:02;101031.44;;;18.11;100.00
7584;BME280;3833;41.764;26.204;2022-09-09T02:21:31;101001.44;;;18.12;100.00
7584;BME280;3833;41.764;26.204;2022-09-09T02:24:03;100956.78;;;17.64;100.00
7584;BME280;3833;41.764;26.204;2022-09-09T02:26:31;101009.56;;;17.36;100.00
7584;BME280;3833;41.764;26.204;2022-09-09T02:29:05;101018.84;;;17.73;100.00
7584;BME280;3833;41.764;26.204;2022-09-09T02:31:34;101014.22;;;19.15;100.00
7584;BME280;3833;41.764;26.204;2022-09-09T02:34:03;101008.97;;;20.18;100.00
7584;BME280;3833;41.764;26.204;2022-09-09T02:36:32;101021.53;;;21.01;100.00
7584;BME280;3833;41.764;26.204;2022-09-09T02:39:01;100945.53;;;20.15;100.00
7584;BME280;3833;41.764;26.204;2022-09-09T02:41:32;101019.91;;;20.26;100.00
7584;BME280;3833;41.764;26.204;2022-09-09T02:43:59;100996.53;;;19.42;100.00
7584;BME280;3833;41.764;26.204;2022-09-09T02:46:55;101028.38;;;19.55;100.00
7584;BME280;3833;41.764;26.204;2022-09-09T02:49:28;101030.19;;;20.18;100.00
7584;BME280;3833;41.764;26.204;2022-09-09T02:52:04;100996.81;;;19.64;100.00
7584;BME280;3833;41.764;26.204;2022-09-09T02:54:33;100930.69;;;18.01;100.00
7584;BME280;3833;41.764;26.204;2022-09-09T02:57:04;101014.78;;;18.38;100.00
7584;BME280;3833;41.764;26.204;2022-09-09T02:59:33;101017.44;;;18.52;100.00
7584;BME280;3833;41.764;26.204;2022-09-09T03:02:01;101016.13;;;19.13;100.00
7584;BME280;3833;41.764;26.204;2022-09-09T03:04:28;100996.84;;;19.50;100.00
7584;BME280;3833;41.764;26.204;2022-09-09T03:06:55;101008.72;;;19.18;100.00
7584;BME280;3833;41.764;26.204;2022-09-09T03:09:22;101014.47;;;18.71;100.00
7584;BME280;3833;41.764;26.204;2022-09-09T03:11:49;101006.38;;;18.46;100.00
7584;BME280;3833;41.764;26.204;2022-09-09T03:14:16;100993.66;;;17.81;100.00
7584;BME280;3833;41.764;26.204;2022-09-09T03:16:46;100968.69;;;17.12;100.00
7584;BME280;3833;41.764;26.204;2022-09-09T03:19:15;100975.94;;;16.93;100.00
7584;BME280;3833;41.764;26.204;2022-09-09T03:21:41;100977.69;;;17.08;100.00
7584;BME280;3833;41.764;26.204;2022-09-09T03:24:08;101007.94;;;16.87;100.00
7584;BME280;3833;41.764;26.204;2022-09-09T03:26:35;101003.84;;;16.82;100.00
7584;BME280;3833;41.764;26.204;2022-09-09T03:29:03;100965.28;;;16.49;100.00
7584;BME280;3833;41.764;26.204;2022-09-09T03:31:33;101004.28;;;17.36;100.00
7584;BME280;3833;41.764;26.204;2022-09-09T03:34:01;101000.09;;;18.05;100.00
7584;BME280;3833;41.764;26.204;2022-09-09T03:36:29;100824.13;;;17.02;100.00
7584;BME280;3833;41.764;26.204;2022-09-09T03:38:56;100969.72;;;18.26;100.00
7584;BME280;3833;41.764;26.204;2022-09-09T03:41:25;100917.38;;;17.75;100.00
7584;BME280;3833;41.764;26.204;2022-09-09T03:43:53;100994.78;;;18.05;100.00
7584;BME280;3833;41.764;26.204;2022-09-09T03:46:20;100992.03;;;18.36;100.00
7584;BME280;3833;41.764;26.204;2022-09-09T03:48:48;100974.81;;;18.97;100.00
7584;BME280;3833;41.764;26.204;2022-09-09T03:51:15;100992.50;;;18.96;100.00
7584;BME280;3833;41.764;26.204;2022-09-09T03:53:43;100983.22;;;19.03;100.00
7584;BME280;3833;41.764;26.204;2022-09-09T03:56:10;100995.16;;;18.96;100.00
7584;BME280;3833;41.764;26.204;2022-09-09T03:58:38;100951.41;;;18.91;100.00
7584;BME280;3833;41.764;26.204;2022-09-09T04:01:06;100989.03;;;18.82;100.00
7584;BME280;3833;41.764;26.204;2022-09-09T04:03:34;100978.13;;;18.86;100.00
7584;BME280;3833;41.764;26.204;2022-09-09T04:06:03;100993.81;;;19.03;100.00
7584;BME280;3833;41.764;26.204;2022-09-09T04:08:30;100975.81;;;19.08;100.00
7584;BME280;3833;41.764;26.204;2022-09-09T04:11:00;100948.72;;;18.09;100.00
7584;BME280;3833;41.764;26.204;2022-09-09T04:13:30;100916.13;;;17.53;100.00
7584;BME280;3833;41.764;26.204;2022-09-09T04:15:58;100992.56;;;18.13;100.00
7584;BME280;3833;41.764;26.204;2022-09-09T04:18:26;100989.66;;;18.45;100.00
7584;BME280;3833;41.764;26.204;2022-09-09T04:20:54;100978.09;;;18.74;100.00
7584;BME280;3833;41.764;26.204;2022-09-09T04:23:23;100973.59;;;19.02;100.00
7584;BME280;3833;41.764;26.204;2022-09-09T04:25:52;100934.53;;;18.66;100.00
7584;BME280;3833;41.764;26.204;2022-09-09T04:28:22;100954.19;;;17.78;100.00
7584;BME280;3833;41.764;26.204;2022-09-09T04:30:50;100993.34;;;17.27;100.00
7584;BME280;3833;41.764;26.204;2022-09-09T04:33:17;100995.16;;;17.11;100.00
7584;BME280;3833;41.764;26.204;2022-09-09T04:35:45;100968.56;;;17.29;100.00
7584;BME280;3833;41.764;26.204;2022-09-09T04:38:13;101007.59;;;18.12;100.00
7584;BME280;3833;41.764;26.204;2022-09-09T04:40:42;100984.66;;;18.27;100.00
7584;BME280;3833;41.764;26.204;2022-09-09T04:43:09;101013.56;;;18.44;100.00
7584;BME280;3833;41.764;26.204;2022-09-09T04:45:38;100930.13;;;17.82;100.00
7584;BME280;3833;41.764;26.204;2022-09-09T04:48:06;101025.97;;;18.14;100.00
7584;BME280;3833;41.764;26.204;2022-09-09T04:50:33;101019.16;;;18.10;100.00
7584;BME280;3833;41.764;26.204;2022-09-09T04:53:00;101031.22;;;18.29;100.00
7584;BME280;3833;41.764;26.204;2022-09-09T04:55:28;101030.69;;;17.95;100.00
7584;BME280;3833;41.764;26.204;2022-09-09T04:57:55;101021.16;;;17.92;100.00
7584;BME280;3833;41.764;26.204;2022-09-09T05:00:22;101008.63;;;17.80;100.00
7584;BME280;3833;41.764;26.204;2022-09-09T05:02:51;101040.16;;;18.13;100.00
7584;BME280;3833;41.764;26.204;2022-09-09T05:05:17;100947.69;;;17.40;100.00
7584;BME280;3833;41.764;26.204;2022-09-09T05:07:45;100986.56;;;17.38;100.00
7584;BME280;3833;41.764;26.204;2022-09-09T05:10:12;101039.44;;;17.95;100.00
7584;BME280;3833;41.764;26.204;2022-09-09T05:12:40;101039.72;;;17.91;100.00
7584;BME280;3833;41.764;26.204;2022-09-09T05:15:08;101047.91;;;18.16;100.00
7584;BME280;3833;41.764;26.204;2022-09-09T05:17:35;100921.91;;;17.59;100.00
7584;BME280;3833;41.764;26.204;2022-09-09T05:20:04;101051.06;;;18.50;100.00
7584;BME280;3833;41.764;26.204;2022-09-09T05:22:31;101043.22;;;18.77;100.00
7584;BME280;3833;41.764;26.204;2022-09-09T05:24:58;101047.34;;;18.94;100.00
7584;BME280;3833;41.764;26.204;2022-09-09T05:27:25;101041.50;;;18.48;100.00
7584;BME280;3833;41.764;26.204;2022-09-09T05:29:53;101042.84;;;18.55;100.00
7584;BME280;3833;41.764;26.204;2022-09-09T05:32:20;101030.75;;;18.65;100.00
7584;BME280;3833;41.764;26.204;2022-09-09T05:34:49;101026.06;;;18.96;100.00
7584;BME280;3833;41.764;26.204;2022-09-09T05:37:18;100997.00;;;19.08;100.00
7584;BME280;3833;41.764;26.204;2022-09-09T05:39:45;100998.56;;;19.51;100.00
7584;BME280;3833;41.764;26.204;2022-09-09T05:42:15;100886.53;;;19.10;100.00
7584;BME280;3833;41.764;26.204;2022-09-09T05:44:42;101036.34;;;20.06;100.00
7584;BME280;3833;41.764;26.204;2022-09-09T05:47:10;100961.94;;;19.31;100.00
7584;BME280;3833;41.764;26.204;2022-09-09T05:49:37;101052.75;;;19.86;100.00
7584;BME280;3833;41.764;26.204;2022-09-09T05:52:04;101047.69;;;19.69;100.00
7584;BME280;3833;41.764;26.204;2022-09-09T05:54:32;101026.53;;;19.94;100.00
7584;BME280;3833;41.764;26.204;2022-09-09T05:56:59;100978.47;;;19.74;100.00
7584;BME280;3833;41.764;26.204;2022-09-09T05:59:26;101038.88;;;20.07;100.00
7584;BME280;3833;41.764;26.204;2022-09-09T06:01:53;101035.91;;;20.12;100.00
7584;BME280;3833;41.764;26.204;2022-09-09T06:04:20;101040.81;;;20.30;100.00
7584;BME280;3833;41.764;26.204;2022-09-09T06:06:53;101039.53;;;20.61;100.00
7584;BME280;3833;41.764;26.204;2022-09-09T06:09:19;101045.38;;;20.41;100.00
7584;BME280;3833;41.764;26.204;2022-09-09T06:11:47;101041.22;;;20.37;100.00
7584;BME280;3833;41.764;26.204;2022-09-09T06:14:14;101045.25;;;20.55;100.00
7584;BME280;3833;41.764;26.204;2022-09-09T06:16:43;100954.44;;;20.14;100.00
7584;BME280;3833;41.764;26.204;2022-09-09T06:19:10;101046.19;;;20.79;100.00
7584;BME280;3833;41.764;26.204;2022-09-09T06:21:38;100953.53;;;20.51;100.00
7584;BME280;3833;41.764;26.204;2022-09-09T06:24:05;101000.91;;;20.93;100.00
7584;BME280;3833;41.764;26.204;2022-09-09T06:26:35;101046.44;;;21.11;100.00
7584;BME280;3833;41.764;26.204;2022-09-09T06:29:04;101048.47;;;21.08;100.00
7584;BME280;3833;41.764;26.204;2022-09-09T06:31:33;101053.75;;;21.20;100.00
7584;BME280;3833;41.764;26.204;2022-09-09T06:34:01;101048.19;;;21.36;100.00
7584;BME280;3833;41.764;26.204;2022-09-09T06:36:29;101040.03;;;21.73;100.00
7584;BME280;3833;41.764;26.204;2022-09-09T06:38:57;101057.97;;;21.82;100.00
7584;BME280;3833;41.764;26.204;2022-09-09T06:41:25;101034.84;;;21.83;100.00
7584;BME280;3833;41.764;26.204;2022-09-09T06:43:52;101044.09;;;22.35;100.00
7584;BME280;3833;41.764;26.204;2022-09-09T06:46:23;100906.13;;;21.85;100.00
7584;BME280;3833;41.764;26.204;2022-09-09T06:48:52;101046.25;;;22.96;100.00
7584;BME280;3833;41.764;26.204;2022-09-09T06:51:22;100987.66;;;23.07;100.00
7584;BME280;3833;41.764;26.204;2022-09-09T06:53:51;101053.34;;;23.50;100.00
7584;BME280;3833;41.764;26.204;2022-09-09T06:56:20;101048.34;;;23.56;100.00
7584;BME280;3833;41.764;26.204;2022-09-09T06:58:48;101004.19;;;23.63;100.00
7584;BME280;3833;41.764;26.204;2022-09-09T07:01:17;101032.78;;;24.33;100.00
7584;BME280;3833;41.764;26.204;2022-09-09T07:03:47;101024.41;;;24.18;100.00
7584;BME280;3833;41.764;26.204;2022-09-09T07:06:17;101045.81;;;23.86;100.00
7584;BME280;3833;41.764;26.204;2022-09-09T07:08:48;101048.97;;;24.32;100.00
7584;BME280;3833;41.764;26.204;2022-09-09T07:11:16;101038.03;;;24.35;100.00
7584;BME280;3833;41.764;26.204;2022-09-09T07:13:42;100914.75;;;24.10;100.00
7584;BME280;3833;41.764;26.204;2022-09-09T07:16:10;101023.69;;;24.96;98.78
7584;BME280;3833;41.764;26.204;2022-09-09T07:18:38;101010.97;;;24.49;100.00
7584;BME280;3833;41.764;26.204;2022-09-09T07:21:09;101057.34;;;24.78;100.00
7584;BME280;3833;41.764;26.204;2022-09-09T07:23:37;101060.91;;;25.18;99.30
7584;BME280;3833;41.764;26.204;2022-09-09T07:26:08;101049.94;;;25.21;99.96
7584;BME280;3833;41.764;26.204;2022-09-09T07:28:35;101042.72;;;25.12;99.18
7584;BME280;3833;41.764;26.204;2022-09-09T07:31:03;101049.88;;;25.60;93.96
7584;BME280;3833;41.764;26.204;2022-09-09T07:33:30;101008.03;;;25.68;92.68
7584;BME280;3833;41.764;26.204;2022-09-09T07:36:03;101050.59;;;25.90;91.63
7584;BME280;3833;41.764;26.204;2022-09-09T07:38:32;101047.03;;;25.61;96.83
7584;BME280;3833;41.764;26.204;2022-09-09T07:41:04;101035.59;;;26.35;93.12
7584;BME280;3833;41.764;26.204;2022-09-09T07:43:32;100947.28;;;26.43;86.06
7584;BME280;3833;41.764;26.204;2022-09-09T07:46:00;101045.69;;;27.67;81.65
7584;BME280;3833;41.764;26.204;2022-09-09T07:48:28;101040.66;;;28.07;78.16
7584;BME280;3833;41.764;26.204;2022-09-09T07:51:04;101042.84;;;28.29;75.64
7584;BME280;3833;41.764;26.204;2022-09-09T07:53:32;101037.63;;;27.67;75.36
7584;BME280;3833;41.764;26.204;2022-09-09T07:56:03;101036.34;;;27.45;77.55
7584;BME280;3833;41.764;26.204;2022-09-09T07:58:30;101037.84;;;27.03;79.81
7584;BME280;3833;41.764;26.204;2022-09-09T08:00:56;100984.22;;;27.03;80.21
7584;BME280;3833;41.764;26.204;2022-09-09T08:03:24;101033.47;;;27.55;76.97
7584;BME280;3833;41.764;26.204;2022-09-09T08:05:50;101029.66;;;28.18;74.53
7584;BME280;3833;41.764;26.204;2022-09-09T08:08:20;100977.88;;;27.65;74.82
7584;BME280;3833;41.764;26.204;2022-09-09T08:10:48;101015.72;;;27.62;75.13
7584;BME280;3833;41.764;26.204;2022-09-09T08:13:15;101018.25;;;27.29;75.73
7584;BME280;3833;41.764;26.204;2022-09-09T08:15:42;101005.91;;;27.19;75.67
7584;BME280;3833;41.764;26.204;2022-09-09T08:18:09;101001.91;;;27.23;73.67
7584;BME280;3833;41.764;26.204;2022-09-09T08:20:36;101000.78;;;27.60;71.34
7584;BME280;3833;41.764;26.204;2022-09-09T08:23:04;101004.53;;;27.49;72.11
7584;BME280;3833;41.764;26.204;2022-09-09T08:25:31;100993.78;;;27.84;70.54
7584;BME280;3833;41.764;26.204;2022-09-09T08:28:00;100984.69;;;27.77;66.82
7584;BME280;3833;41.764;26.204;2022-09-09T08:30:27;100987.47;;;27.68;67.68
7584;BME280;3833;41.764;26.204;2022-09-09T08:32:54;100998.63;;;27.98;68.56
7584;BME280;3833;41.764;26.204;2022-09-09T08:35:20;100991.94;;;28.02;66.81
7584;BME280;3833;41.764;26.204;2022-09-09T08:37:47;100994.72;;;28.18;67.98
7584;BME280;3833;41.764;26.204;2022-09-09T08:40:21;100993.03;;;27.40;72.04
7584;BME280;3833;41.764;26.204;2022-09-09T08:42:50;100998.81;;;28.48;65.53
7584;BME280;3833;41.764;26.204;2022-09-09T08:45:25;100993.56;;;29.21;61.58
7584;BME280;3833;41.764;26.204;2022-09-09T08:48:08;100988.63;;;29.00;57.70
7584;BME280;3833;41.764;26.204;2022-09-09T08:50:38;100982.88;;;28.87;59.42
7584;BME280;3833;41.764;26.204;2022-09-09T08:53:11;100987.06;;;28.90;59.14
7584;BME280;3833;41.764;26.204;2022-09-09T08:55:45;100936.97;;;28.56;58.12
7584;BME280;3833;41.764;26.204;2022-09-09T08:58:15;100973.22;;;28.77;60.86
7584;BME280;3833;41.764;26.204;2022-09-09T09:00:55;100966.06;;;29.59;59.39
7584;BME280;3833;41.764;26.204;2022-09-09T09:03:33;100975.41;;;29.23;59.10
7584;BME280;3833;41.764;26.204;2022-09-09T09:06:07;100960.66;;;29.82;58.27
7584;BME280;3833;41.764;26.204;2022-09-09T09:08:45;100958.63;;;29.76;58.08
7584;BME280;3833;41.764;26.204;2022-09-09T09:11:14;100960.66;;;29.59;57.21
7584;BME280;3833;41.764;26.204;2022-09-09T09:13:45;100957.25;;;29.25;58.99
7584;BME280;3833;41.764;26.204;2022-09-09T09:16:21;100962.19;;;29.53;59.13
7584;BME280;3833;41.764;26.204;2022-09-09T09:18:51;100954.38;;;30.76;55.87
7584;BME280;3833;41.764;26.204;2022-09-09T09:24:59;100707.94;;;28.44;56.66
7584;BME280;3833;41.764;26.204;2022-09-09T09:30:53;100936.88;;;30.18;56.44
7584;BME280;3833;41.764;26.204;2022-09-09T09:34:07;100946.16;;;29.91;56.19
7584;BME280;3833;41.764;26.204;2022-09-09T09:36:41;100945.28;;;30.23;53.70
7584;BME280;3833;41.764;26.204;2022-09-09T09:39:10;100930.91;;;30.46;51.91
7584;BME280;3833;41.764;26.204;2022-09-09T09:41:41;100920.94;;;29.76;52.46
7584;BME280;3833;41.764;26.204;2022-09-09T09:44:30;100912.00;;;30.46;52.52
7584;BME280;3833;41.764;26.204;2022-09-09T09:47:10;100872.72;;;30.82;50.49
7584;BME280;3833;41.764;26.204;2022-09-09T09:50:21;100630.53;;;29.42;49.85
7584;BME280;3833;41.764;26.204;2022-09-09T09:56:55;100919.38;;;30.14;50.42
7584;BME280;3833;41.764;26.204;2022-09-09T09:59:33;100909.81;;;30.03;51.54
7584;BME280;3833;41.764;26.204;2022-09-09T10:02:22;100890.88;;;30.19;50.85
7584;BME280;3833;41.764;26.204;2022-09-09T10:05:03;100908.13;;;30.49;50.51
7584;BME280;3833;41.764;26.204;2022-09-09T10:07:31;100900.91;;;30.79;48.13
7584;BME280;3833;41.764;26.204;2022-09-09T10:09:58;100905.66;;;31.08;47.31
7584;BME280;3833;41.764;26.204;2022-09-09T10:12:37;100816.00;;;30.29;48.10
7584;BME280;3833;41.764;26.204;2022-09-09T10:15:20;100845.13;;;31.25;46.34
7584;BME280;3833;41.764;26.204;2022-09-09T10:17:57;100891.97;;;32.05;45.57
7584;BME280;3833;41.764;26.204;2022-09-09T10:20:36;100806.66;;;31.23;45.53
7584;BME280;3833;41.764;26.204;2022-09-09T10:23:29;100864.53;;;31.80;44.45
7584;BME280;3833;41.764;26.204;2022-09-09T10:26:12;100878.78;;;32.46;42.03
7584;BME280;3833;41.764;26.204;2022-09-09T10:29:06;100880.38;;;31.83;43.88
7584;BME280;3833;41.764;26.204;2022-09-09T10:31:43;100882.22;;;31.45;44.10
7584;BME280;3833;41.764;26.204;2022-09-09T10:34:33;100886.56;;;31.09;43.98
7584;BME280;3833;41.764;26.204;2022-09-09T10:37:15;100814.63;;;30.94;44.58
7584;BME280;3833;41.764;26.204;2022-09-09T10:39:50;100870.19;;;31.11;43.79
7584;BME280;3833;41.764;26.204;2022-09-09T10:42:26;100863.53;;;31.21;42.53
7584;BME280;3833;41.764;26.204;2022-09-09T10:45:07;100867.44;;;31.78;42.16
7584;BME280;3833;41.764;26.204;2022-09-09T10:47:59;100769.69;;;31.38;41.41
7584;BME280;3833;41.764;26.204;2022-09-09T10:50:41;100859.97;;;31.94;41.78
7584;BME280;3833;41.764;26.204;2022-09-09T10:53:16;100854.84;;;31.99;40.95
7584;BME280;3833;41.764;26.204;2022-09-09T10:55:51;100832.84;;;31.59;41.52
7584;BME280;3833;41.764;26.204;2022-09-09T10:58:23;100847.38;;;31.73;41.25
7584;BME280;3833;41.764;26.204;2022-09-09T11:00:54;100820.28;;;31.44;40.87
7584;BME280;3833;41.764;26.204;2022-09-09T11:03:27;100841.78;;;31.60;40.87
7584;BME280;3833;41.764;26.204;2022-09-09T11:05:58;100846.69;;;31.71;41.63
7584;BME280;3833;41.764;26.204;2022-09-09T11:08:29;100832.81;;;31.74;41.58
7584;BME280;3833;41.764;26.204;2022-09-09T11:11:00;100832.47;;;31.77;41.86
7584;BME280;3833;41.764;26.204;2022-09-09T11:13:34;100825.66;;;32.38;40.06
7584;BME280;3833;41.764;26.204;2022-09-09T11:16:10;100829.72;;;32.63;39.48
7584;BME280;3833;41.764;26.204;2022-09-09T11:18:42;100830.13;;;32.81;39.49
7584;BME280;3833;41.764;26.204;2022-09-09T11:21:16;100811.25;;;32.17;39.22
7584;BME280;3833;41.764;26.204;2022-09-09T11:23:50;100823.34;;;32.06;39.02
7584;BME280;3833;41.764;26.204;2022-09-09T11:26:27;100815.22;;;32.71;38.23
7584;BME280;3833;41.764;26.204;2022-09-09T11:29:06;100816.53;;;32.25;38.70
7584;BME280;3833;41.764;26.204;2022-09-09T11:31:44;100811.28;;;32.09;38.37
7584;BME280;3833;41.764;26.204;2022-09-09T11:34:19;100814.53;;;32.33;39.30
7584;BME280;3833;41.764;26.204;2022-09-09T11:36:59;100814.03;;;32.23;38.81
7584;BME280;3833;41.764;26.204;2022-09-09T11:39:56;100815.50;;;32.11;38.65
7584;BME280;3833;41.764;26.204;2022-09-09T11:42:27;100750.06;;;32.01;38.29
7584;BME280;3833;41.764;26.204;2022-09-09T11:44:54;100815.25;;;32.56;37.33
7584;BME280;3833;41.764;26.204;2022-09-09T11:47:24;100624.81;;;31.30;37.59
7584;BME280;3833;41.764;26.204;2022-09-09T11:49:54;100812.06;;;31.89;37.95
7584;BME280;3833;41.764;26.204;2022-09-09T11:52:23;100789.13;;;31.70;38.87
7584;BME280;3833;41.764;26.204;2022-09-09T11:54:55;100731.81;;;31.89;38.28
7584;BME280;3833;41.764;26.204;2022-09-09T11:57:30;100788.50;;;32.47;38.11
7584;BME280;3833;41.764;26.204;2022-09-09T11:59:57;100799.47;;;32.24;37.48
7584;BME280;3833;41.764;26.204;2022-09-09T12:02:27;100749.88;;;32.17;37.46
7584;BME280;3833;41.764;26.204;2022-09-09T12:04:59;100791.78;;;32.42;37.66
7584;BME280;3833;41.764;26.204;2022-09-09T12:07:39;100769.50;;;32.61;37.80
7584;BME280;3833;41.764;26.204;2022-09-09T12:10:22;100751.16;;;32.21;37.69
7584;BME280;3833;41.764;26.204;2022-09-09T12:12:52;100693.25;;;31.81;36.71
7584;BME280;3833;41.764;26.204;2022-09-09T12:15:22;100775.28;;;32.58;36.35
7584;BME280;3833;41.764;26.204;2022-09-09T12:17:52;100770.03;;;32.50;36.56
7584;BME280;3833;41.764;26.204;2022-09-09T12:20:21;100763.41;;;32.38;36.37
7584;BME280;3833;41.764;26.204;2022-09-09T12:23:02;100758.19;;;32.72;36.34
7584;BME280;3833;41.764;26.204;2022-09-09T12:25:47;100754.50;;;33.21;36.03
7584;BME280;3833;41.764;26.204;2022-09-09T12:28:18;100758.44;;;32.98;36.15
7584;BME280;3833;41.764;26.204;2022-09-09T12:30:53;100743.88;;;32.99;35.43
7584;BME280;3833;41.764;26.204;2022-09-09T12:33:23;100739.97;;;32.24;36.63
7584;BME280;3833;41.764;26.204;2022-09-09T12:35:53;100744.25;;;32.96;36.47
7584;BME280;3833;41.764;26.204;2022-09-09T12:38:27;100739.47;;;32.98;36.36
7584;BME280;3833;41.764;26.204;2022-09-09T12:41:01;100716.34;;;32.96;36.09
7584;BME280;3833;41.764;26.204;2022-09-09T12:43:30;100525.03;;;31.99;36.18
7584;BME280;3833;41.764;26.204;2022-09-09T12:46:00;100724.16;;;32.84;36.15
7584;BME280;3833;41.764;26.204;2022-09-09T12:48:31;100692.72;;;32.62;35.56
7584;BME280;3833;41.764;26.204;2022-09-09T12:50:59;100720.84;;;32.47;36.59
7584;BME280;3833;41.764;26.204;2022-09-09T12:53:30;100716.88;;;32.07;36.41
7584;BME280;3833;41.764;26.204;2022-09-09T12:56:03;100709.69;;;32.35;36.19
7584;BME280;3833;41.764;26.204;2022-09-09T12:58:33;100673.66;;;32.28;36.05
7584;BME280;3833;41.764;26.204;2022-09-09T13:01:02;100696.53;;;32.95;35.84
7584;BME280;3833;41.764;26.204;2022-09-09T13:03:31;100705.59;;;32.60;35.79
7584;BME280;3833;41.764;26.204;2022-09-09T13:06:09;100696.31;;;32.27;36.42
7584;BME280;3833;41.764;26.204;2022-09-09T13:08:37;100691.78;;;32.34;35.69
7584;BME280;3833;41.764;26.204;2022-09-09T13:11:10;100689.03;;;32.91;35.64
7584;BME280;3833;41.764;26.204;2022-09-09T13:13:41;100648.13;;;32.79;35.91
7584;BME280;3833;41.764;26.204;2022-09-09T13:16:19;100674.69;;;32.69;35.12
7584;BME280;3833;41.764;26.204;2022-09-09T13:18:46;100657.81;;;32.46;36.20
7584;BME280;3833;41.764;26.204;2022-09-09T13:21:13;100670.34;;;32.54;36.04
7584;BME280;3833;41.764;26.204;2022-09-09T13:23:40;100545.34;;;31.75;35.92
7584;BME280;3833;41.764;26.204;2022-09-09T13:26:22;100650.69;;;32.87;35.06
7584;BME280;3833;41.764;26.204;2022-09-09T13:28:49;100670.81;;;32.78;34.69